Time;durP1;ratioP1;P1;durP2;ratioP2;P2;SDS_P1;SDS_P2;PMS_P1;PMS_P2;Temp;Humidity;BMP_temperature;BMP_pressure;BME280_temperature;BME280_humidity;BME280_pressure;Samples;Min_cycle;Max_cycle;Signal;HPM_P1;HPM_P2
2023/03/10 00:01:26;;;;;;;5.40;3.60;;;;;;;7.36;84.03;97911.25;5032050;28;20210;-78
2023/03/10 00:03:56;;;;;;;4.37;3.67;;;;;;;7.36;83.48;97901.41;5032005;28;20190;-78
2023/03/10 00:06:30;;;;;;;4.43;3.13;;;;;;;7.31;83.74;97898.66;5028373;28;20658;-80
2023/03/10 00:08:59;;;;;;;3.40;3.10;;;;;;;7.29;83.61;97899.94;5014924;28;20224;-77
2023/03/10 00:11:26;;;;;;;4.17;3.30;;;;;;;7.23;83.54;97893.72;5031109;28;20288;-79
2023/03/10 00:13:53;;;;;;;4.13;3.33;;;;;;;7.20;83.27;97894.19;5034371;28;20237;-79
2023/03/10 00:16:26;;;;;;;3.47;2.93;;;;;;;7.08;84.33;97891.63;5034441;28;20568;-77
2023/03/10 00:18:55;;;;;;;5.00;3.10;;;;;;;7.14;84.64;97899.69;5018167;28;20224;-78
2023/03/10 00:21:26;;;;;;;4.20;3.00;;;;;;;6.99;84.56;97898.38;5034079;28;20211;-81
2023/03/10 00:23:53;;;;;;;5.13;3.70;;;;;;;6.91;85.41;97890.75;5026288;28;20289;-78
2023/03/10 00:26:24;;;;;;;5.23;3.70;;;;;;;6.84;85.93;97887.44;5035623;28;20590;-79
2023/03/10 00:28:53;;;;;;;7.00;3.30;;;;;;;6.76;86.02;97887.00;5018196;28;20229;-78
2023/03/10 00:31:24;;;;;;;5.83;3.60;;;;;;;6.69;85.44;97884.47;5017388;28;20210;-78
2023/03/10 00:33:53;;;;;;;3.53;2.80;;;;;;;6.46;85.90;97882.69;5022928;28;20217;-80
2023/03/10 00:36:24;;;;;;;3.80;3.40;;;;;;;6.46;86.07;97877.38;5032156;28;20183;-78
2023/03/10 00:38:53;;;;;;;5.67;3.40;;;;;;;6.32;86.20;97869.88;5027012;28;20556;-78
2023/03/10 00:41:25;;;;;;;5.57;3.40;;;;;;;6.23;86.53;97865.97;5017402;28;20202;-78
2023/03/10 00:43:52;;;;;;;4.33;3.33;;;;;;;6.15;87.58;97867.16;5033080;28;20198;-78
2023/03/10 00:46:19;;;;;;;4.47;3.50;;;;;;;6.11;87.90;97858.03;5022362;28;20187;-78
2023/03/10 00:48:51;;;;;;;4.23;3.30;;;;;;;6.06;88.72;97844.63;5030773;28;20298;-80
2023/03/10 00:51:19;;;;;;;4.93;3.33;;;;;;;6.02;89.00;97852.22;5032870;28;20651;-78
2023/03/10 00:53:48;;;;;;;5.13;3.40;;;;;;;5.96;88.73;97833.78;5032025;28;20186;-79
2023/03/10 00:56:22;;;;;;;4.77;3.30;;;;;;;5.86;89.25;97836.97;5032539;28;20217;-81
2023/03/10 00:58:54;;;;;;;6.27;3.40;;;;;;;5.76;90.11;97836.75;5025682;28;20287;-78
2023/03/10 01:01:25;;;;;;;5.33;3.00;;;;;;;5.69;90.96;97828.09;5012865;28;20223;-78
2023/03/10 01:03:53;;;;;;;4.53;3.30;;;;;;;5.66;91.48;97810.75;5030321;28;20623;-78
2023/03/10 01:06:24;;;;;;;3.50;2.90;;;;;;;5.64;91.63;97801.44;5002062;28;20378;-79
2023/03/10 01:08:50;;;;;;;4.10;3.13;;;;;;;5.60;91.32;97805.59;5033377;28;20207;-78
2023/03/10 01:11:22;;;;;;;4.80;3.13;;;;;;;5.49;92.21;97799.22;5023113;28;20201;-79
2023/03/10 01:13:49;;;;;;;3.90;3.13;;;;;;;5.37;92.98;97787.78;5031135;28;20288;-78
2023/03/10 01:16:19;;;;;;;4.50;3.33;;;;;;;5.37;93.02;97790.44;5013063;28;20194;-78
2023/03/10 01:18:48;;;;;;;5.93;3.30;;;;;;;5.33;93.22;97787.44;5033637;28;20198;-79
2023/03/10 01:21:28;;;;;;;4.73;2.97;;;;;;;5.26;93.75;97776.13;5031139;28;20214;-78
2023/03/10 01:23:55;;;;;;;4.47;2.93;;;;;;;5.23;93.66;97778.41;5019584;28;20216;-78
2023/03/10 01:26:22;;;;;;;3.43;2.90;;;;;;;5.19;94.05;97770.13;5029432;28;20203;-78
2023/03/10 01:28:51;;;;;;;4.37;3.00;;;;;;;5.15;94.44;97765.50;5012776;28;20198;-78
2023/03/10 01:31:18;;;;;;;4.50;2.43;;;;;;;5.08;95.24;97762.97;5026333;28;20305;-79
2023/03/10 01:33:48;;;;;;;3.17;2.33;;;;;;;5.09;95.57;97763.75;5008692;28;20237;-79
2023/03/10 01:36:22;;;;;;;4.30;2.50;;;;;;;5.05;95.13;97754.63;5033053;28;20210;-78
2023/03/10 01:38:49;;;;;;;4.90;2.30;;;;;;;5.00;95.86;97757.16;5016557;28;20198;-78
2023/03/10 01:41:24;;;;;;;3.17;2.30;;;;;;;4.93;95.81;97740.56;5036434;28;20217;-78
2023/03/10 01:43:53;;;;;;;3.87;2.80;;;;;;;4.93;95.61;97738.72;5032659;28;20285;-77
2023/03/10 01:46:26;;;;;;;4.83;3.20;;;;;;;4.97;95.12;97745.19;4997393;28;20738;-79
2023/03/10 01:49:25;;;;;;;4.60;3.50;;;;;;;4.95;94.77;97749.91;5030183;28;20248;-79
2023/03/10 01:52:06;;;;;;;3.40;2.73;;;;;;;4.85;95.08;97753.09;5011908;28;20214;-79
2023/03/10 01:54:43;;;;;;;3.90;3.00;;;;;;;4.79;94.88;97743.44;5014315;28;20293;-79
2023/03/10 01:57:19;;;;;;;4.60;2.60;;;;;;;4.70;95.86;97736.03;5017634;28;20289;-80
2023/03/10 01:59:52;;;;;;;3.17;2.50;;;;;;;4.71;96.53;97735.00;5016883;28;20205;-80
2023/03/10 02:02:20;;;;;;;3.70;2.10;;;;;;;4.71;96.56;97730.47;5029046;28;20690;-79
2023/03/10 02:04:48;;;;;;;4.10;2.80;;;;;;;4.67;96.54;97721.34;5032452;28;20186;-78
2023/03/10 02:07:25;;;;;;;3.60;2.17;;;;;;;4.57;97.31;97715.00;5017088;28;20229;-80
2023/03/10 02:09:55;;;;;;;4.70;2.80;;;;;;;4.57;97.71;97702.56;5009175;28;20201;-79
2023/03/10 02:12:24;;;;;;;3.20;2.07;;;;;;;4.58;98.14;97698.03;5032413;28;20194;-78
2023/03/10 02:14:54;;;;;;;3.00;2.03;;;;;;;4.59;98.08;97692.53;5008750;28;20642;-78
2023/03/10 02:17:24;;;;;;;3.10;2.03;;;;;;;4.62;98.32;97681.44;5032580;28;20284;-80
2023/03/10 02:20:12;;;;;;;3.73;1.90;;;;;;;4.62;97.96;97685.97;4999758;28;20194;-78
2023/03/10 02:22:41;;;;;;;3.07;1.67;;;;;;;4.64;98.16;97682.03;5029789;28;20295;-80
2023/03/10 02:25:44;;;;;;;4.87;1.80;;;;;;;4.74;97.73;97676.16;5008625;28;20272;-78
2023/03/10 02:28:11;;;;;;;2.87;1.53;;;;;;;4.82;97.25;97666.00;5025128;28;20225;-78
2023/03/10 02:30:47;;;;;;;2.90;1.50;;;;;;;4.87;96.94;97660.00;5012653;28;20670;-80
2023/03/10 02:33:18;;;;;;;3.67;1.90;;;;;;;4.92;96.54;97648.72;5012629;28;20210;-81
2023/03/10 02:35:47;;;;;;;2.40;1.50;;;;;;;4.88;96.13;97649.19;4997063;28;20210;-80
2023/03/10 02:38:19;;;;;;;4.17;1.70;;;;;;;4.87;96.64;97650.22;5022337;28;20193;-78
2023/03/10 02:40:49;;;;;;;5.47;2.70;;;;;;;4.86;96.88;97647.78;5032120;28;20213;-78
2023/03/10 02:43:26;;;;;;;4.77;2.63;;;;;;;4.84;96.34;97642.72;5007227;28;20210;-78
2023/03/10 02:46:20;;;;;;;3.93;2.23;;;;;;;4.80;96.59;97648.72;5025620;28;20190;-79
2023/03/10 02:48:47;;;;;;;2.40;1.90;;;;;;;4.81;96.60;97637.88;5031171;28;20202;-81
2023/03/10 02:51:24;;;;;;;3.23;2.20;;;;;;;4.77;96.02;97630.59;5016320;28;20209;-79
2023/03/10 02:54:00;;;;;;;3.30;2.20;;;;;;;4.73;96.93;97642.72;5016018;28;20221;-78
2023/03/10 02:56:33;;;;;;;3.30;2.13;;;;;;;4.65;97.70;97627.97;5027659;28;20190;-79
2023/03/10 02:59:01;;;;;;;2.27;1.77;;;;;;;4.64;97.88;97622.88;5031715;28;20695;-78
2023/03/10 03:01:31;;;;;;;2.67;2.07;;;;;;;4.54;98.61;97612.84;5003135;28;20249;-79
2023/03/10 03:03:59;;;;;;;2.67;2.00;;;;;;;4.52;99.29;97611.47;5020590;28;20273;-78
2023/03/10 03:06:32;;;;;;;2.57;1.77;;;;;;;4.39;99.65;97612.47;4999161;28;20182;-78
2023/03/10 03:09:01;;;;;;;3.23;2.10;;;;;;;4.47;99.22;97612.16;5032818;28;20205;-80
2023/03/10 03:11:35;;;;;;;3.83;2.27;;;;;;;4.31;99.81;97602.19;5015488;28;20221;-78
2023/03/10 03:14:07;;;;;;;4.13;1.90;;;;;;;4.41;99.44;97616.53;5031591;28;20259;-80
2023/03/10 03:16:37;;;;;;;3.73;2.00;;;;;;;4.32;99.39;97617.88;5031705;28;20204;-80
2023/03/10 03:19:08;;;;;;;3.17;2.00;;;;;;;4.23;100.00;97602.53;5031336;28;20186;-80
2023/03/10 03:21:38;;;;;;;2.53;1.93;;;;;;;4.21;100.00;97594.81;5031342;28;20313;-81
2023/03/10 03:24:22;;;;;;;3.00;1.87;;;;;;;4.21;99.96;97591.34;5008166;28;20194;-81
2023/03/10 03:26:49;;;;;;;3.97;2.17;;;;;;;4.13;100.00;97581.09;5027265;28;20182;-80
2023/03/10 03:29:21;;;;;;;3.73;2.10;;;;;;;4.08;100.00;97571.16;5031537;28;20229;-80
2023/03/10 03:31:55;;;;;;;3.50;2.10;;;;;;;3.97;100.00;97564.00;5031586;28;20198;-79
2023/03/10 03:34:30;;;;;;;4.37;2.60;;;;;;;3.86;100.00;97570.91;5031212;28;20308;-80
2023/03/10 03:37:07;;;;;;;2.97;2.30;;;;;;;3.74;100.00;97571.88;5029677;28;20197;-79
2023/03/10 03:39:38;;;;;;;2.47;2.17;;;;;;;3.81;100.00;97575.25;5031058;28;20186;-80
2023/03/10 03:42:10;;;;;;;2.97;2.50;;;;;;;3.74;100.00;97566.59;5031464;28;20269;-78
2023/03/10 03:44:43;;;;;;;2.87;2.30;;;;;;;3.72;100.00;97573.97;5031153;28;20271;-79
2023/03/10 03:47:11;;;;;;;2.63;2.23;;;;;;;3.67;100.00;97564.06;5034874;28;20281;-79
2023/03/10 03:49:46;;;;;;;3.23;1.53;;;;;;;3.67;100.00;97556.09;5035160;28;20232;-79
2023/03/10 03:52:18;;;;;;;3.90;2.10;;;;;;;3.70;100.00;97547.69;5018609;28;20198;-78
2023/03/10 03:54:58;;;;;;;2.57;1.97;;;;;;;3.65;100.00;97534.31;5035378;28;20671;-79
2023/03/10 03:57:26;;;;;;;2.50;1.87;;;;;;;3.59;100.00;97519.34;5033996;28;20202;-79
2023/03/10 03:59:53;;;;;;;4.00;2.20;;;;;;;3.60;100.00;97523.59;5036174;28;20686;-79
2023/03/10 04:02:20;;;;;;;3.27;2.03;;;;;;;3.55;100.00;97518.97;5018467;28;20222;-79
2023/03/10 04:04:52;;;;;;;3.67;2.07;;;;;;;3.55;100.00;97508.38;5036114;28;20187;-78
2023/03/10 04:07:22;;;;;;;2.60;1.83;;;;;;;3.53;100.00;97509.66;5034621;28;20252;-79
2023/03/10 04:09:49;;;;;;;2.40;1.90;;;;;;;3.49;100.00;97508.50;5034801;28;20189;-79
2023/03/10 04:12:19;;;;;;;3.87;2.00;;;;;;;3.44;100.00;97501.25;5034524;28;20682;-81
2023/03/10 04:14:46;;;;;;;3.53;2.20;;;;;;;3.39;100.00;97495.81;5034373;28;20262;-79
2023/03/10 04:17:20;;;;;;;2.87;1.87;;;;;;;3.38;100.00;97496.03;5031465;28;20244;-79
2023/03/10 04:19:51;;;;;;;3.33;1.90;;;;;;;3.37;100.00;97491.75;5017961;28;20228;-78
2023/03/10 04:22:35;;;;;;;3.70;2.00;;;;;;;3.44;100.00;97485.34;5019790;28;20720;-78
2023/03/10 04:25:06;;;;;;;3.20;1.90;;;;;;;3.45;100.00;97483.53;5033996;28;20213;-79
2023/03/10 04:27:34;;;;;;;2.33;1.93;;;;;;;3.40;100.00;97468.31;5016238;28;20206;-82
2023/03/10 04:30:10;;;;;;;2.97;2.00;;;;;;;3.33;100.00;97464.13;5028715;28;20194;-81
2023/03/10 04:32:39;;;;;;;4.07;2.20;;;;;;;3.31;100.00;97467.00;5034232;28;20240;-81
2023/03/10 04:35:07;;;;;;;2.60;2.13;;;;;;;3.28;100.00;97459.50;5011031;28;20277;-79
2023/03/10 04:37:36;;;;;;;4.00;1.90;;;;;;;3.15;100.00;97461.53;5033674;28;20202;-78
2023/03/10 04:40:08;;;;;;;2.67;2.00;;;;;;;3.14;100.00;97460.72;5017562;28;20194;-79
2023/03/10 04:42:35;;;;;;;2.47;1.80;;;;;;;3.17;100.00;97454.19;5034299;28;20293;-80
2023/03/10 04:45:03;;;;;;;3.13;2.13;;;;;;;3.21;100.00;97450.88;5033993;28;20732;-79
2023/03/10 04:47:34;;;;;;;4.33;2.47;;;;;;;3.23;100.00;97442.69;5034204;28;20228;-79
2023/03/10 04:50:03;;;;;;;3.07;2.40;;;;;;;3.24;100.00;97433.72;5033867;28;20194;-79
2023/03/10 04:52:36;;;;;;;3.60;2.33;;;;;;;3.20;100.00;97428.09;5030757;28;20690;-79
2023/03/10 04:55:12;;;;;;;3.57;2.40;;;;;;;3.31;100.00;97408.78;5017938;28;20198;-78
2023/03/10 04:57:50;;;;;;;9.77;5.50;;;;;;;3.37;100.00;97401.75;5033355;28;20284;-80
2023/03/10 05:00:19;;;;;;;11.70;7.27;;;;;;;3.41;100.00;97397.63;5033542;28;20206;-81
2023/03/10 05:02:49;;;;;;;8.43;5.73;;;;;;;3.54;100.00;97406.19;5033872;28;20221;-81
2023/03/10 05:05:16;;;;;;;5.03;3.30;;;;;;;3.65;100.00;97393.97;5017199;28;20202;-79
2023/03/10 05:07:44;;;;;;;5.20;3.07;;;;;;;3.64;100.00;97381.75;5017469;28;20662;-78
2023/03/10 05:10:12;;;;;;;4.10;2.90;;;;;;;3.61;100.00;97379.59;5017019;28;20217;-79
2023/03/10 05:12:38;;;;;;;8.13;6.07;;;;;;;3.61;100.00;97384.06;5033820;28;20186;-79
2023/03/10 05:15:10;;;;;;;5.27;3.60;;;;;;;3.68;100.00;97380.28;5017130;28;20323;-80
2023/03/10 05:17:41;;;;;;;6.80;3.20;;;;;;;3.77;100.00;97375.44;5034820;28;20677;-79
2023/03/10 05:20:19;;;;;;;6.53;3.97;;;;;;;3.85;100.00;97383.84;5034400;28;20186;-81
2023/03/10 05:22:48;;;;;;;4.80;3.40;;;;;;;3.97;100.00;97386.47;5016705;28;20225;-80
2023/03/10 05:25:23;;;;;;;5.57;3.53;;;;;;;4.02;100.00;97391.09;5002120;28;20201;-79
2023/03/10 05:27:52;;;;;;;6.67;3.87;;;;;;;4.08;100.00;97376.91;5027087;28;20585;-79
2023/03/10 05:30:19;;;;;;;5.43;3.53;;;;;;;4.21;100.00;97376.66;5033347;28;20194;-80
2023/03/10 05:32:48;;;;;;;12.10;4.10;;;;;;;4.30;100.00;97372.59;5033420;28;20289;-79
2023/03/10 05:35:21;;;;;;;6.83;4.90;;;;;;;4.33;100.00;97366.84;5033740;28;20186;-80
2023/03/10 05:37:51;;;;;;;6.97;5.90;;;;;;;4.41;100.00;97364.63;5034878;28;20190;-79
2023/03/10 05:40:18;;;;;;;12.93;8.33;;;;;;;4.53;100.00;97351.31;5018149;28;20190;-81
2023/03/10 05:42:48;;;;;;;13.60;10.03;;;;;;;4.59;100.00;97342.44;5001176;28;20310;-79
2023/03/10 05:45:19;;;;;;;9.93;7.83;;;;;;;4.70;100.00;97346.09;5017398;28;20229;-78
2023/03/10 05:47:46;;;;;;;13.07;10.07;;;;;;;4.72;100.00;97344.00;5016539;28;20198;-78
2023/03/10 05:50:16;;;;;;;12.07;9.00;;;;;;;4.79;100.00;97344.66;5034134;28;20256;-80
2023/03/10 05:52:44;;;;;;;7.60;5.90;;;;;;;4.94;100.00;97330.88;5034082;28;20190;-79
2023/03/10 05:55:16;;;;;;;6.03;4.63;;;;;;;5.00;100.00;97329.88;5016666;28;20274;-81
2023/03/10 05:57:43;;;;;;;6.67;4.33;;;;;;;5.08;100.00;97340.94;5032971;28;20213;-81
2023/03/10 06:00:15;;;;;;;4.73;3.23;;;;;;;5.06;100.00;97342.22;5016944;28;20196;-83
2023/03/10 06:03:03;;;;;;;4.57;3.40;;;;;;;4.94;100.00;97334.31;5032819;28;20241;-79
2023/03/10 06:05:30;;;;;;;4.67;3.50;;;;;;;4.88;100.00;97329.97;5032639;28;20733;-79
2023/03/10 06:07:58;;;;;;;6.07;3.73;;;;;;;4.95;100.00;97335.91;5032722;28;20272;-80
2023/03/10 06:10:25;;;;;;;5.53;3.40;;;;;;;4.95;100.00;97332.44;5032691;28;20194;-79
2023/03/10 06:12:54;;;;;;;5.27;3.30;;;;;;;4.94;100.00;97329.03;5028207;28;20201;-79
2023/03/10 06:15:22;;;;;;;4.87;3.27;;;;;;;4.92;100.00;97331.09;5032503;28;20217;-80
2023/03/10 06:17:49;;;;;;;5.73;3.60;;;;;;;5.05;100.00;97328.13;5032610;28;20196;-79
2023/03/10 06:20:16;;;;;;;7.37;3.33;;;;;;;5.11;100.00;97324.53;5000890;28;20207;-79
2023/03/10 06:22:42;;;;;;;5.10;3.47;;;;;;;5.23;100.00;97319.94;5031233;28;20313;-79
2023/03/10 06:25:29;;;;;;;5.23;3.83;;;;;;;5.34;100.00;97323.56;5032228;28;20670;-80
2023/03/10 06:28:04;;;;;;;4.23;3.23;;;;;;;5.43;100.00;97318.66;5032652;28;20188;-82
2023/03/10 06:30:34;;;;;;;3.83;3.20;;;;;;;5.56;100.00;97313.00;5031356;28;20186;-82
2023/03/10 06:33:01;;;;;;;4.73;3.50;;;;;;;5.59;100.00;97321.31;5032614;28;20226;-80
2023/03/10 06:35:30;;;;;;;5.30;3.50;;;;;;;5.69;100.00;97323.31;5033136;28;20209;-80
2023/03/10 06:37:59;;;;;;;4.27;3.17;;;;;;;5.83;100.00;97329.06;5032891;28;20202;-78
2023/03/10 06:40:26;;;;;;;4.23;3.40;;;;;;;5.95;100.00;97324.47;5035305;28;20182;-81
2023/03/10 06:42:53;;;;;;;4.37;3.57;;;;;;;6.08;100.00;97332.09;5033086;28;20206;-81
2023/03/10 06:45:27;;;;;;;6.70;4.00;;;;;;;6.27;100.00;97322.75;5031137;28;20257;-80
2023/03/10 06:56:45;;;;;;;7.37;4.63;;;;;;;6.71;100.00;97320.06;5031929;28;20193;-80
2023/03/10 06:59:33;;;;;;;8.23;4.77;;;;;;;6.88;100.00;97310.91;5012130;28;20201;-78
2023/03/10 07:02:12;;;;;;;6.00;4.67;;;;;;;7.03;100.00;97307.59;5031523;28;20190;-79
2023/03/10 07:09:07;;;;;;;9.50;4.90;;;;;;;7.28;100.00;97299.81;5029045;28;20302;-78
2023/03/10 07:11:35;;;;;;;7.30;5.13;;;;;;;7.41;100.00;97306.59;5028805;28;20671;-79
2023/03/10 07:14:09;;;;;;;6.00;5.00;;;;;;;7.53;100.00;97304.53;5030623;28;20238;-78
2023/03/10 07:16:46;;;;;;;7.80;4.80;;;;;;;7.60;100.00;97296.31;5025595;28;20244;-78
2023/03/10 07:19:16;;;;;;;5.97;4.73;;;;;;;7.74;100.00;97292.97;5030566;28;20214;-78
2023/03/10 07:21:59;;;;;;;7.00;5.00;;;;;;;7.82;100.00;97287.13;5033528;28;20195;-78
2023/03/10 07:24:26;;;;;;;7.60;5.23;;;;;;;8.02;100.00;97278.44;5034526;28;20256;-80
2023/03/10 07:26:53;;;;;;;9.23;6.33;;;;;;;8.19;100.00;97279.03;5037584;28;20189;-80
2023/03/10 07:29:19;;;;;;;7.20;5.37;;;;;;;8.35;100.00;97269.25;5038348;28;20192;-78
2023/03/10 07:31:47;;;;;;;8.43;5.37;;;;;;;8.59;100.00;97275.69;5021762;28;20210;-79
2023/03/10 07:34:14;;;;;;;7.50;5.20;;;;;;;8.74;100.00;97251.72;5037388;28;20193;-78
2023/03/10 07:36:41;;;;;;;7.53;6.10;;;;;;;8.82;100.00;97256.53;5037758;28;20268;-79
2023/03/10 07:39:08;;;;;;;8.03;5.80;;;;;;;8.96;100.00;97250.69;5024909;28;20281;-79
2023/03/10 07:41:35;;;;;;;7.80;5.83;;;;;;;8.97;100.00;97253.06;5037111;28;20195;-78
2023/03/10 07:44:02;;;;;;;6.07;5.47;;;;;;;9.01;100.00;97253.31;5038187;28;20205;-78
2023/03/10 07:46:30;;;;;;;7.70;5.47;;;;;;;8.98;100.00;97253.88;5021212;28;20185;-78
2023/03/10 07:49:02;;;;;;;6.27;5.60;;;;;;;9.33;100.00;97242.38;5033656;28;20295;-82
2023/03/10 07:51:34;;;;;;;5.80;5.10;;;;;;;9.40;100.00;97249.06;5021657;28;20271;-81
2023/03/10 07:54:04;;;;;;;7.93;5.60;;;;;;;9.48;100.00;97239.69;5020992;28;20197;-79
2023/03/10 07:56:31;;;;;;;6.90;5.37;;;;;;;9.65;100.00;97234.84;5021269;28;20197;-80
2023/03/10 07:58:59;;;;;;;5.67;4.77;;;;;;;9.85;100.00;97224.06;5021237;28;20244;-79
2023/03/10 08:01:26;;;;;;;9.07;5.37;;;;;;;9.93;100.00;97228.06;5037099;28;20202;-81
2023/03/10 08:03:56;;;;;;;7.70;4.90;;;;;;;10.18;100.00;97227.19;5003911;28;20217;-79
2023/03/10 08:06:26;;;;;;;5.77;4.70;;;;;;;10.33;99.54;97224.44;5018135;28;20190;-78
2023/03/10 08:08:53;;;;;;;6.27;5.20;;;;;;;10.52;97.27;97204.78;5036999;28;20228;-79
2023/03/10 08:11:22;;;;;;;8.23;4.67;;;;;;;10.54;96.28;97210.66;5037177;28;20581;-78
2023/03/10 08:13:55;;;;;;;6.37;4.60;;;;;;;10.88;94.87;97215.25;5034595;28;20234;-77
2023/03/10 08:16:26;;;;;;;6.67;4.87;;;;;;;10.96;94.36;97215.44;5036739;28;20684;-78
2023/03/10 08:18:53;;;;;;;6.63;4.90;;;;;;;11.17;93.47;97205.34;5018617;28;20289;-79
2023/03/10 08:21:20;;;;;;;6.63;4.93;;;;;;;11.36;92.93;97213.50;5036657;28;20194;-78
2023/03/10 08:23:51;;;;;;;6.07;4.67;;;;;;;11.54;92.22;97220.00;5037017;28;20218;-78
2023/03/10 08:26:18;;;;;;;5.80;4.77;;;;;;;11.77;91.48;97212.03;5036802;28;20566;-79
2023/03/10 08:28:45;;;;;;;5.70;4.70;;;;;;;11.96;90.38;97212.06;5020714;28;20574;-78
2023/03/10 08:31:14;;;;;;;5.63;4.60;;;;;;;12.04;89.47;97218.72;5036661;28;20194;-79
2023/03/10 08:33:43;;;;;;;6.53;4.73;;;;;;;12.24;89.00;97210.38;5033255;28;20187;-79
2023/03/10 08:36:12;;;;;;;5.33;4.33;;;;;;;12.41;87.81;97210.69;5015724;28;20298;-79
2023/03/10 08:38:40;;;;;;;7.30;4.90;;;;;;;12.33;86.59;97201.41;5035088;28;20190;-80
2023/03/10 08:41:12;;;;;;;5.37;4.40;;;;;;;12.52;86.09;97208.66;5033641;28;20190;-79
2023/03/10 08:43:39;;;;;;;5.60;4.60;;;;;;;12.64;86.45;97199.09;5033674;28;20202;-79
2023/03/10 08:46:09;;;;;;;5.97;4.13;;;;;;;12.90;86.55;97191.44;5033520;28;20293;-80
2023/03/10 08:48:36;;;;;;;5.90;4.70;;;;;;;13.03;87.16;97190.66;5018875;28;20603;-79
2023/03/10 08:51:09;;;;;;;7.17;5.20;;;;;;;13.05;87.34;97185.81;5032550;28;20319;-79
2023/03/10 08:53:36;;;;;;;5.33;4.40;;;;;;;12.98;86.00;97193.44;5033804;28;20221;-79
2023/03/10 08:56:04;;;;;;;8.10;5.17;;;;;;;13.03;86.03;97187.19;5022819;28;20186;-78
2023/03/10 08:58:32;;;;;;;6.00;4.97;;;;;;;13.18;86.19;97187.75;5033072;28;20651;-78
2023/03/10 09:01:03;;;;;;;5.77;4.60;;;;;;;13.24;85.21;97199.25;5033020;28;20221;-78
2023/03/10 09:03:31;;;;;;;7.37;5.03;;;;;;;13.36;85.13;97194.19;5015281;28;20256;-80
2023/03/10 09:05:59;;;;;;;8.07;5.13;;;;;;;13.27;84.22;97193.25;5031971;28;20206;-78
2023/03/10 09:08:31;;;;;;;6.10;4.70;;;;;;;13.47;83.71;97200.97;5031330;28;20268;-78
2023/03/10 09:10:58;;;;;;;7.20;4.50;;;;;;;13.28;83.69;97196.75;5015659;28;20823;-77
2023/03/10 09:13:28;;;;;;;8.57;5.07;;;;;;;13.32;83.77;97203.13;5032087;28;20234;-78
2023/03/10 09:15:55;;;;;;;5.30;4.63;;;;;;;13.32;83.02;97208.50;5032895;28;20186;-79
2023/03/10 09:18:25;;;;;;;5.43;4.37;;;;;;;13.40;83.54;97215.88;5027739;28;20195;-79
2023/03/10 09:20:52;;;;;;;6.93;4.90;;;;;;;13.20;82.40;97209.00;5028993;28;20206;-79
2023/03/10 09:23:19;;;;;;;5.90;5.03;;;;;;;13.22;82.67;97212.97;5026737;28;20240;-79
2023/03/10 09:25:46;;;;;;;9.03;4.77;;;;;;;13.61;82.14;97222.53;5030932;28;20564;-77
2023/03/10 09:28:13;;;;;;;5.60;4.87;;;;;;;13.74;81.37;97227.13;5032822;28;20190;-79
2023/03/10 09:30:42;;;;;;;6.77;4.57;;;;;;;13.88;80.76;97229.81;5027580;28;20260;-79
2023/03/10 09:33:15;;;;;;;5.43;4.67;;;;;;;14.07;79.69;97230.50;5032203;28;20191;-79
2023/03/10 09:35:43;;;;;;;6.13;5.13;;;;;;;13.81;79.36;97232.13;5016521;28;20198;-79
2023/03/10 09:38:28;;;;;;;5.47;4.97;;;;;;;13.73;79.43;97222.03;5032452;28;20198;-79
2023/03/10 09:41:14;;;;;;;5.77;4.50;;;;;;;13.78;79.91;97217.34;5032385;28;20593;-81
2023/03/10 09:43:44;;;;;;;5.73;5.10;;;;;;;13.73;79.91;97217.44;5031345;28;20233;-79
2023/03/10 09:46:31;;;;;;;7.53;5.70;;;;;;;13.96;79.61;97210.25;5016948;28;20201;-79
2023/03/10 09:49:24;;;;;;;6.47;4.90;;;;;;;14.47;78.39;97207.34;5031918;28;20253;-79
2023/03/10 09:51:51;;;;;;;5.13;4.67;;;;;;;14.35;78.02;97210.53;5019183;28;20190;-79
2023/03/10 09:54:35;;;;;;;7.57;4.80;;;;;;;14.80;77.10;97213.34;5014579;28;20588;-79
2023/03/10 09:57:15;;;;;;;5.70;4.80;;;;;;;15.00;75.93;97207.47;5031001;28;20287;-79
2023/03/10 09:59:44;;;;;;;5.50;5.00;;;;;;;15.21;74.73;97205.88;5012724;28;20190;-78
2023/03/10 10:02:26;;;;;;;6.37;4.77;;;;;;;15.42;73.54;97208.88;5031643;28;20245;-79
2023/03/10 10:04:57;;;;;;;8.17;4.93;;;;;;;15.50;73.34;97199.22;5028120;28;20435;-80
2023/03/10 10:07:27;;;;;;;5.57;4.90;;;;;;;15.34;72.87;97201.53;5034308;28;20212;-80
2023/03/10 10:10:04;;;;;;;7.13;4.80;;;;;;;15.55;72.16;97194.50;5031926;28;20188;-79
2023/03/10 10:12:34;;;;;;;5.63;4.67;;;;;;;15.87;70.90;97204.19;5015671;28;20610;-80
2023/03/10 10:15:13;;;;;;;6.27;4.90;;;;;;;15.92;71.12;97203.22;5031362;28;20224;-80
2023/03/10 10:17:44;;;;;;;5.43;4.90;;;;;;;15.97;71.17;97198.50;5030024;28;20696;-80
2023/03/10 10:20:26;;;;;;;6.30;4.93;;;;;;;16.02;71.31;97201.06;5030051;28;20263;-80
2023/03/10 10:22:58;;;;;;;7.80;4.97;;;;;;;16.06;70.10;97199.31;4997320;28;20254;-81
2023/03/10 10:25:29;;;;;;;5.30;4.80;;;;;;;16.34;68.99;97189.06;5004546;28;20280;-80
2023/03/10 10:27:57;;;;;;;5.57;4.50;;;;;;;15.90;69.51;97192.78;4998569;28;20205;-79
2023/03/10 10:30:25;;;;;;;9.80;5.20;;;;;;;16.00;69.11;97187.09;5013864;28;20276;-81
2023/03/10 10:32:56;;;;;;;6.77;4.40;;;;;;;16.20;69.68;97182.97;5033002;28;20213;-81
2023/03/10 10:35:25;;;;;;;5.97;4.47;;;;;;;16.42;67.95;97184.78;5015376;28;20186;-80
2023/03/10 10:38:01;;;;;;;5.90;4.20;;;;;;;16.25;68.21;97188.25;5031069;28;20200;-80
2023/03/10 10:40:32;;;;;;;4.27;3.77;;;;;;;16.66;65.55;97177.81;5034759;28;20190;-79
2023/03/10 10:43:11;;;;;;;6.80;3.93;;;;;;;16.90;65.99;97171.13;5031214;28;20186;-80
2023/03/10 10:45:39;;;;;;;3.63;3.33;;;;;;;17.01;62.01;97159.69;5025000;28;20240;-78
2023/03/10 10:48:45;;;;;;;5.07;3.67;;;;;;;17.26;62.28;97163.47;5040403;28;20201;-79
2023/03/10 10:51:31;;;;;;;3.87;2.73;;;;;;;17.53;60.01;97156.84;5029697;28;20190;-80
2023/03/10 10:54:03;;;;;;;2.40;2.20;;;;;;;17.04;59.25;97161.75;5015107;28;20695;-80
2023/03/10 10:56:31;;;;;;;3.20;2.20;;;;;;;17.01;58.56;97161.59;5014742;28;20674;-79
2023/03/10 10:59:12;;;;;;;2.50;2.30;;;;;;;17.20;58.22;97155.84;5023030;28;20273;-80
2023/03/10 11:01:49;;;;;;;3.93;2.53;;;;;;;17.32;58.65;97164.88;5023896;28;20194;-80
2023/03/10 11:04:28;;;;;;;5.40;2.77;;;;;;;17.64;58.89;97173.59;5031456;28;20225;-80
2023/03/10 11:07:09;;;;;;;5.40;2.90;;;;;;;17.64;57.99;97163.53;5032934;28;20299;-80
2023/03/10 11:09:39;;;;;;;3.60;3.10;;;;;;;17.52;58.98;97161.47;5032570;28;20186;-81
2023/03/10 11:12:36;;;;;;;3.83;2.40;;;;;;;17.88;57.98;97169.16;5031930;28;20197;-80
2023/03/10 11:15:18;;;;;;;4.70;2.40;;;;;;;17.93;57.84;97166.25;5024369;28;20325;-80
2023/03/10 11:17:54;;;;;;;3.10;2.70;;;;;;;17.93;57.28;97151.94;5030850;28;20191;-80
2023/03/10 11:20:51;;;;;;;4.90;2.40;;;;;;;18.23;56.41;97139.97;5031093;28;20205;-79
2023/03/10 11:24:02;;;;;;;2.83;1.60;;;;;;;17.80;53.99;97121.25;5015351;28;20194;-80
2023/03/10 11:26:37;;;;;;;2.70;1.73;;;;;;;18.44;55.07;97123.69;5032148;28;20198;-80
2023/03/10 11:29:17;;;;;;;2.47;1.30;;;;;;;18.83;52.73;97127.88;5015220;28;20205;-80
2023/03/10 11:31:59;;;;;;;2.13;1.20;;;;;;;18.98;50.97;97115.63;5032522;28;20222;-79
2023/03/10 11:34:31;;;;;;;1.50;1.00;;;;;;;18.98;50.49;97110.19;5015135;28;20198;-79
2023/03/10 11:37:34;;;;;;;2.10;1.30;;;;;;;18.90;50.34;97119.97;5030683;28;20244;-80
2023/03/10 11:40:38;;;;;;;1.93;1.20;;;;;;;18.99;50.26;97117.97;5027450;28;20191;-80
2023/03/10 11:43:19;;;;;;;3.40;2.57;;;;;;;19.00;52.48;97116.84;5026776;28;20205;-80
2023/03/10 11:45:51;;;;;;;3.73;3.00;;;;;;;18.64;53.10;97111.28;5039447;28;20249;-79
2023/03/10 11:48:40;;;;;;;3.40;2.70;;;;;;;18.63;52.84;97110.50;5032014;28;20186;-79
2023/03/10 11:51:44;;;;;;;6.03;3.13;;;;;;;18.57;52.91;97109.09;5011889;28;20224;-80
2023/03/10 11:54:34;;;;;;;4.50;3.77;;;;;;;17.91;54.09;97103.50;5030078;28;20197;-79
2023/03/10 11:57:05;;;;;;;4.60;3.20;;;;;;;18.44;53.94;97096.59;5025493;28;20296;-79
2023/03/10 11:59:35;;;;;;;4.17;3.70;;;;;;;18.54;53.21;97104.34;5008622;28;20241;-80
2023/03/10 12:02:04;;;;;;;10.57;4.23;;;;;;;19.24;52.80;97097.94;5009533;28;20206;-80
2023/03/10 12:04:49;;;;;;;4.67;3.40;;;;;;;18.66;53.14;97100.94;5008522;28;20238;-79
2023/03/10 12:07:39;;;;;;;7.00;3.20;;;;;;;18.92;53.43;97099.53;5035384;28;20186;-79
2023/03/10 12:10:18;;;;;;;4.23;3.20;;;;;;;18.65;53.65;97105.56;5035455;28;20233;-79
2023/03/10 12:12:46;;;;;;;5.23;3.37;;;;;;;19.00;53.13;97103.28;5015529;28;20198;-80
2023/03/10 12:15:22;;;;;;;4.47;3.70;;;;;;;19.22;52.54;97100.16;5002140;28;20783;-80